sensor_id;sensor_type;location;lat;lon;timestamp;P1;durP1;ratioP1;P2;durP2;ratioP2
18336;SDS011;9294;51.106;7.028;2022-12-10T00:00:05;5.28;;;4.97;;
18336;SDS011;9294;51.106;7.028;2022-12-10T00:02:32;5.15;;;4.93;;
18336;SDS011;9294;51.106;7.028;2022-12-10T00:05:00;5.50;;;5.00;;
18336;SDS011;9294;51.106;7.028;2022-12-10T00:07:27;6.10;;;5.70;;
18336;SDS011;9294;51.106;7.028;2022-12-10T00:09:54;5.60;;;5.20;;
18336;SDS011;9294;51.106;7.028;2022-12-10T00:12:20;5.30;;;4.90;;
18336;SDS011;9294;51.106;7.028;2022-12-10T00:14:47;6.15;;;5.75;;
18336;SDS011;9294;51.106;7.028;2022-12-10T00:17:14;6.00;;;5.60;;
18336;SDS011;9294;51.106;7.028;2022-12-10T00:19:40;6.00;;;5.60;;
18336;SDS011;9294;51.106;7.028;2022-12-10T00:22:08;5.82;;;5.50;;
18336;SDS011;9294;51.106;7.028;2022-12-10T00:24:35;5.88;;;5.55;;
18336;SDS011;9294;51.106;7.028;2022-12-10T00:27:02;5.63;;;5.28;;
18336;SDS011;9294;51.106;7.028;2022-12-10T00:29:28;5.78;;;5.40;;
18336;SDS011;9294;51.106;7.028;2022-12-10T00:31:55;5.57;;;5.25;;
18336;SDS011;9294;51.106;7.028;2022-12-10T00:34:21;5.70;;;5.40;;
18336;SDS011;9294;51.106;7.028;2022-12-10T00:36:48;6.03;;;5.63;;
18336;SDS011;9294;51.106;7.028;2022-12-10T00:39:17;6.30;;;5.90;;
18336;SDS011;9294;51.106;7.028;2022-12-10T00:41:45;6.13;;;5.63;;
18336;SDS011;9294;51.106;7.028;2022-12-10T00:44:12;5.65;;;5.25;;
18336;SDS011;9294;51.106;7.028;2022-12-10T00:46:39;5.97;;;5.57;;
18336;SDS011;9294;51.106;7.028;2022-12-10T00:49:06;5.70;;;5.40;;
18336;SDS011;9294;51.106;7.028;2022-12-10T00:51:32;5.47;;;5.17;;
18336;SDS011;9294;51.106;7.028;2022-12-10T00:53:59;6.22;;;5.82;;
18336;SDS011;9294;51.106;7.028;2022-12-10T00:56:30;6.10;;;5.70;;
18336;SDS011;9294;51.106;7.028;2022-12-10T00:58:58;5.93;;;5.55;;
18336;SDS011;9294;51.106;7.028;2022-12-10T01:01:27;5.93;;;5.63;;
18336;SDS011;9294;51.106;7.028;2022-12-10T01:03:58;6.13;;;5.72;;
18336;SDS011;9294;51.106;7.028;2022-12-10T01:06:27;5.75;;;5.35;;
18336;SDS011;9294;51.106;7.028;2022-12-10T01:08:55;5.50;;;5.20;;
18336;SDS011;9294;51.106;7.028;2022-12-10T01:11:25;5.78;;;5.47;;
18336;SDS011;9294;51.106;7.028;2022-12-10T01:13:55;5.40;;;5.10;;
18336;SDS011;9294;51.106;7.028;2022-12-10T01:16:22;5.45;;;5.15;;
18336;SDS011;9294;51.106;7.028;2022-12-10T01:18:52;6.13;;;5.72;;
18336;SDS011;9294;51.106;7.028;2022-12-10T01:21:19;6.73;;;6.30;;
18336;SDS011;9294;51.106;7.028;2022-12-10T01:23:48;5.97;;;5.57;;
18336;SDS011;9294;51.106;7.028;2022-12-10T01:26:16;5.90;;;5.50;;
18336;SDS011;9294;51.106;7.028;2022-12-10T01:28:45;5.97;;;5.57;;
18336;SDS011;9294;51.106;7.028;2022-12-10T01:31:14;6.32;;;5.93;;
18336;SDS011;9294;51.106;7.028;2022-12-10T01:33:41;5.97;;;5.57;;
18336;SDS011;9294;51.106;7.028;2022-12-10T01:36:09;5.65;;;5.28;;
18336;SDS011;9294;51.106;7.028;2022-12-10T01:38:37;6.05;;;5.65;;
18336;SDS011;9294;51.106;7.028;2022-12-10T01:41:05;5.68;;;5.28;;
18336;SDS011;9294;51.106;7.028;2022-12-10T01:43:48;5.68;;;5.38;;
18336;SDS011;9294;51.106;7.028;2022-12-10T01:46:26;5.60;;;5.30;;
18336;SDS011;9294;51.106;7.028;2022-12-10T01:48:53;5.90;;;5.60;;
18336;SDS011;9294;51.106;7.028;2022-12-10T01:51:21;6.03;;;5.73;;
18336;SDS011;9294;51.106;7.028;2022-12-10T01:53:49;6.07;;;5.67;;
18336;SDS011;9294;51.106;7.028;2022-12-10T01:56:17;6.07;;;5.67;;
18336;SDS011;9294;51.106;7.028;2022-12-10T01:58:44;6.32;;;5.93;;
18336;SDS011;9294;51.106;7.028;2022-12-10T02:01:14;5.65;;;5.25;;
18336;SDS011;9294;51.106;7.028;2022-12-10T02:03:51;5.97;;;5.57;;
18336;SDS011;9294;51.106;7.028;2022-12-10T02:06:27;5.53;;;5.22;;
18336;SDS011;9294;51.106;7.028;2022-12-10T02:09:07;5.97;;;5.63;;
18336;SDS011;9294;51.106;7.028;2022-12-10T02:11:37;6.38;;;5.97;;
18336;SDS011;9294;51.106;7.028;2022-12-10T02:14:08;6.15;;;5.75;;
18336;SDS011;9294;51.106;7.028;2022-12-10T02:16:38;5.97;;;5.57;;
18336;SDS011;9294;51.106;7.028;2022-12-10T02:19:11;5.68;;;5.38;;
18336;SDS011;9294;51.106;7.028;2022-12-10T02:21:46;5.53;;;5.23;;
18336;SDS011;9294;51.106;7.028;2022-12-10T02:24:15;5.45;;;5.15;;
18336;SDS011;9294;51.106;7.028;2022-12-10T02:26:47;6.13;;;5.73;;
18336;SDS011;9294;51.106;7.028;2022-12-10T02:29:18;5.88;;;5.57;;
18336;SDS011;9294;51.106;7.028;2022-12-10T02:31:46;6.07;;;5.68;;
18336;SDS011;9294;51.106;7.028;2022-12-10T02:34:16;5.55;;;5.25;;
18336;SDS011;9294;51.106;7.028;2022-12-10T02:36:45;6.27;;;5.87;;
18336;SDS011;9294;51.106;7.028;2022-12-10T02:39:16;5.80;;;5.40;;
18336;SDS011;9294;51.106;7.028;2022-12-10T02:41:46;5.80;;;5.40;;
18336;SDS011;9294;51.106;7.028;2022-12-10T02:44:14;6.30;;;5.90;;
18336;SDS011;9294;51.106;7.028;2022-12-10T02:46:44;6.28;;;5.88;;
18336;SDS011;9294;51.106;7.028;2022-12-10T02:49:13;5.95;;;5.55;;
18336;SDS011;9294;51.106;7.028;2022-12-10T02:51:41;5.97;;;5.63;;
18336;SDS011;9294;51.106;7.028;2022-12-10T02:56:50;5.85;;;5.47;;
18336;SDS011;9294;51.106;7.028;2022-12-10T02:59:25;5.53;;;5.22;;
18336;SDS011;9294;51.106;7.028;2022-12-10T03:01:58;5.85;;;5.47;;
18336;SDS011;9294;51.106;7.028;2022-12-10T03:04:33;6.13;;;5.72;;
18336;SDS011;9294;51.106;7.028;2022-12-10T03:07:06;5.47;;;5.18;;
18336;SDS011;9294;51.106;7.028;2022-12-10T03:09:37;6.18;;;5.78;;
18336;SDS011;9294;51.106;7.028;2022-12-10T03:12:10;5.82;;;5.53;;
18336;SDS011;9294;51.106;7.028;2022-12-10T03:14:42;5.80;;;5.47;;
18336;SDS011;9294;51.106;7.028;2022-12-10T03:17:12;5.90;;;5.55;;
18336;SDS011;9294;51.106;7.028;2022-12-10T03:19:42;6.25;;;5.85;;
18336;SDS011;9294;51.106;7.028;2022-12-10T03:22:11;5.82;;;5.50;;
18336;SDS011;9294;51.106;7.028;2022-12-10T03:24:39;5.68;;;5.32;;
18336;SDS011;9294;51.106;7.028;2022-12-10T03:27:07;6.30;;;5.90;;
18336;SDS011;9294;51.106;7.028;2022-12-10T03:29:36;6.15;;;5.75;;
18336;SDS011;9294;51.106;7.028;2022-12-10T03:32:05;6.30;;;5.90;;
18336;SDS011;9294;51.106;7.028;2022-12-10T03:34:33;6.18;;;5.78;;
18336;SDS011;9294;51.106;7.028;2022-12-10T03:37:01;5.93;;;5.53;;
18336;SDS011;9294;51.106;7.028;2022-12-10T03:39:29;6.43;;;6.03;;
18336;SDS011;9294;51.106;7.028;2022-12-10T03:41:56;6.00;;;5.60;;
18336;SDS011;9294;51.106;7.028;2022-12-10T03:44:29;5.83;;;5.43;;
18336;SDS011;9294;51.106;7.028;2022-12-10T03:46:56;5.95;;;5.55;;
18336;SDS011;9294;51.106;7.028;2022-12-10T03:49:23;5.82;;;5.53;;
18336;SDS011;9294;51.106;7.028;2022-12-10T03:51:51;5.87;;;5.53;;
18336;SDS011;9294;51.106;7.028;2022-12-10T03:54:18;6.15;;;5.75;;
18336;SDS011;9294;51.106;7.028;2022-12-10T03:56:45;6.10;;;5.70;;
18336;SDS011;9294;51.106;7.028;2022-12-10T03:59:12;6.25;;;5.85;;
18336;SDS011;9294;51.106;7.028;2022-12-10T04:01:39;5.78;;;5.45;;
18336;SDS011;9294;51.106;7.028;2022-12-10T04:04:07;5.65;;;5.35;;
18336;SDS011;9294;51.106;7.028;2022-12-10T04:06:37;5.65;;;5.32;;
18336;SDS011;9294;51.106;7.028;2022-12-10T04:09:10;5.87;;;5.47;;
18336;SDS011;9294;51.106;7.028;2022-12-10T04:11:37;5.60;;;5.30;;
18336;SDS011;9294;51.106;7.028;2022-12-10T04:14:04;6.25;;;5.85;;
18336;SDS011;9294;51.106;7.028;2022-12-10T04:16:48;6.03;;;5.63;;
18336;SDS011;9294;51.106;7.028;2022-12-10T04:19:16;6.72;;;6.32;;
18336;SDS011;9294;51.106;7.028;2022-12-10T04:21:44;6.22;;;5.82;;
18336;SDS011;9294;51.106;7.028;2022-12-10T04:24:31;6.28;;;5.88;;
18336;SDS011;9294;51.106;7.028;2022-12-10T04:27:16;6.13;;;5.72;;
18336;SDS011;9294;51.106;7.028;2022-12-10T04:29:44;6.45;;;6.05;;
18336;SDS011;9294;51.106;7.028;2022-12-10T04:32:11;6.18;;;5.78;;
18336;SDS011;9294;51.106;7.028;2022-12-10T04:34:38;6.18;;;5.78;;
18336;SDS011;9294;51.106;7.028;2022-12-10T04:37:05;5.97;;;5.63;;
18336;SDS011;9294;51.106;7.028;2022-12-10T04:39:34;5.97;;;5.57;;
18336;SDS011;9294;51.106;7.028;2022-12-10T04:42:01;6.32;;;5.93;;
18336;SDS011;9294;51.106;7.028;2022-12-10T04:44:28;6.33;;;5.93;;
18336;SDS011;9294;51.106;7.028;2022-12-10T04:46:55;6.00;;;5.60;;
18336;SDS011;9294;51.106;7.028;2022-12-10T04:49:22;6.47;;;6.07;;
18336;SDS011;9294;51.106;7.028;2022-12-10T04:51:48;6.25;;;5.85;;
18336;SDS011;9294;51.106;7.028;2022-12-10T04:54:16;6.30;;;5.90;;
18336;SDS011;9294;51.106;7.028;2022-12-10T04:56:44;5.95;;;5.55;;
18336;SDS011;9294;51.106;7.028;2022-12-10T04:59:11;6.15;;;5.70;;
18336;SDS011;9294;51.106;7.028;2022-12-10T05:01:38;5.80;;;5.47;;
18336;SDS011;9294;51.106;7.028;2022-12-10T05:04:06;6.18;;;5.78;;
18336;SDS011;9294;51.106;7.028;2022-12-10T05:06:34;6.50;;;6.10;;
18336;SDS011;9294;51.106;7.028;2022-12-10T05:09:01;6.78;;;6.38;;
18336;SDS011;9294;51.106;7.028;2022-12-10T05:11:28;6.45;;;6.05;;
18336;SDS011;9294;51.106;7.028;2022-12-10T05:13:58;6.38;;;5.97;;
18336;SDS011;9294;51.106;7.028;2022-12-10T05:16:25;6.43;;;6.03;;
18336;SDS011;9294;51.106;7.028;2022-12-10T05:18:53;7.00;;;6.50;;
18336;SDS011;9294;51.106;7.028;2022-12-10T05:21:21;6.30;;;5.90;;
18336;SDS011;9294;51.106;7.028;2022-12-10T05:23:49;6.13;;;5.83;;
18336;SDS011;9294;51.106;7.028;2022-12-10T05:26:17;6.45;;;6.05;;
18336;SDS011;9294;51.106;7.028;2022-12-10T05:28:45;5.88;;;5.57;;
18336;SDS011;9294;51.106;7.028;2022-12-10T05:31:15;6.55;;;6.07;;
18336;SDS011;9294;51.106;7.028;2022-12-10T05:33:43;6.10;;;5.80;;
18336;SDS011;9294;51.106;7.028;2022-12-10T05:36:10;6.32;;;5.93;;
18336;SDS011;9294;51.106;7.028;2022-12-10T05:38:38;6.30;;;5.80;;
18336;SDS011;9294;51.106;7.028;2022-12-10T05:41:05;6.45;;;6.05;;
18336;SDS011;9294;51.106;7.028;2022-12-10T05:43:34;6.38;;;5.97;;
18336;SDS011;9294;51.106;7.028;2022-12-10T05:46:01;6.07;;;5.67;;
18336;SDS011;9294;51.106;7.028;2022-12-10T05:48:30;6.38;;;5.97;;
18336;SDS011;9294;51.106;7.028;2022-12-10T05:50:57;5.85;;;5.45;;
18336;SDS011;9294;51.106;7.028;2022-12-10T05:53:24;5.95;;;5.60;;
18336;SDS011;9294;51.106;7.028;2022-12-10T05:55:58;5.85;;;5.55;;
18336;SDS011;9294;51.106;7.028;2022-12-10T05:58:26;5.75;;;5.45;;
18336;SDS011;9294;51.106;7.028;2022-12-10T06:00:53;5.63;;;5.30;;
18336;SDS011;9294;51.106;7.028;2022-12-10T06:03:20;6.20;;;5.80;;
18336;SDS011;9294;51.106;7.028;2022-12-10T06:05:48;6.47;;;6.07;;
18336;SDS011;9294;51.106;7.028;2022-12-10T06:08:15;6.03;;;5.63;;
18336;SDS011;9294;51.106;7.028;2022-12-10T06:10:42;6.43;;;6.03;;
18336;SDS011;9294;51.106;7.028;2022-12-10T06:13:09;5.88;;;5.47;;
18336;SDS011;9294;51.106;7.028;2022-12-10T06:15:40;5.40;;;5.10;;
18336;SDS011;9294;51.106;7.028;2022-12-10T06:18:07;6.18;;;5.78;;
18336;SDS011;9294;51.106;7.028;2022-12-10T06:20:37;5.88;;;5.50;;
18336;SDS011;9294;51.106;7.028;2022-12-10T06:23:06;5.30;;;5.00;;
18336;SDS011;9294;51.106;7.028;2022-12-10T06:25:32;5.47;;;5.10;;
18336;SDS011;9294;51.106;7.028;2022-12-10T06:27:59;5.45;;;5.15;;
18336;SDS011;9294;51.106;7.028;2022-12-10T06:30:26;5.00;;;4.70;;
18336;SDS011;9294;51.106;7.028;2022-12-10T06:32:53;5.32;;;5.03;;
18336;SDS011;9294;51.106;7.028;2022-12-10T06:35:19;5.25;;;4.95;;
18336;SDS011;9294;51.106;7.028;2022-12-10T06:37:46;5.15;;;4.85;;
18336;SDS011;9294;51.106;7.028;2022-12-10T06:40:14;5.03;;;4.72;;
18336;SDS011;9294;51.106;7.028;2022-12-10T06:42:41;4.90;;;4.63;;
18336;SDS011;9294;51.106;7.028;2022-12-10T06:45:08;4.80;;;4.50;;
18336;SDS011;9294;51.106;7.028;2022-12-10T06:47:35;4.82;;;4.63;;
18336;SDS011;9294;51.106;7.028;2022-12-10T06:50:03;5.25;;;4.95;;
18336;SDS011;9294;51.106;7.028;2022-12-10T06:52:30;4.35;;;4.15;;
18336;SDS011;9294;51.106;7.028;2022-12-10T06:54:56;4.15;;;3.85;;
18336;SDS011;9294;51.106;7.028;2022-12-10T06:57:24;5.20;;;4.90;;
18336;SDS011;9294;51.106;7.028;2022-12-10T06:59:51;4.78;;;4.50;;
18336;SDS011;9294;51.106;7.028;2022-12-10T07:02:18;6.72;;;5.05;;
18336;SDS011;9294;51.106;7.028;2022-12-10T07:04:45;11.52;;;4.78;;
18336;SDS011;9294;51.106;7.028;2022-12-10T07:07:12;5.32;;;4.55;;
18336;SDS011;9294;51.106;7.028;2022-12-10T07:09:39;7.47;;;4.88;;
18336;SDS011;9294;51.106;7.028;2022-12-10T07:12:05;5.72;;;4.82;;
18336;SDS011;9294;51.106;7.028;2022-12-10T07:14:34;5.07;;;4.68;;
18336;SDS011;9294;51.106;7.028;2022-12-10T07:17:00;5.78;;;5.35;;
18336;SDS011;9294;51.106;7.028;2022-12-10T07:19:27;6.20;;;5.70;;
18336;SDS011;9294;51.106;7.028;2022-12-10T07:21:54;5.55;;;4.97;;
18336;SDS011;9294;51.106;7.028;2022-12-10T07:24:21;5.53;;;4.97;;
18336;SDS011;9294;51.106;7.028;2022-12-10T07:26:48;5.55;;;5.07;;
18336;SDS011;9294;51.106;7.028;2022-12-10T07:29:15;6.43;;;5.65;;
18336;SDS011;9294;51.106;7.028;2022-12-10T07:31:45;5.38;;;4.97;;
18336;SDS011;9294;51.106;7.028;2022-12-10T07:34:12;5.45;;;4.95;;
18336;SDS011;9294;51.106;7.028;2022-12-10T07:36:39;5.43;;;5.00;;
18336;SDS011;9294;51.106;7.028;2022-12-10T07:39:07;5.63;;;5.10;;
18336;SDS011;9294;51.106;7.028;2022-12-10T07:41:34;5.40;;;4.93;;
18336;SDS011;9294;51.106;7.028;2022-12-10T07:44:02;5.60;;;5.10;;
18336;SDS011;9294;51.106;7.028;2022-12-10T07:46:31;5.45;;;4.95;;
18336;SDS011;9294;51.106;7.028;2022-12-10T07:49:00;5.50;;;5.10;;
18336;SDS011;9294;51.106;7.028;2022-12-10T07:51:28;5.68;;;5.18;;
18336;SDS011;9294;51.106;7.028;2022-12-10T07:53:55;5.50;;;5.00;;
18336;SDS011;9294;51.106;7.028;2022-12-10T07:56:23;5.22;;;4.85;;
18336;SDS011;9294;51.106;7.028;2022-12-10T07:58:50;5.88;;;5.38;;
18336;SDS011;9294;51.106;7.028;2022-12-10T08:01:19;5.40;;;5.00;;
18336;SDS011;9294;51.106;7.028;2022-12-10T08:03:47;4.47;;;4.18;;
18336;SDS011;9294;51.106;7.028;2022-12-10T08:06:17;6.60;;;6.07;;
18336;SDS011;9294;51.106;7.028;2022-12-10T08:08:44;10.77;;;6.28;;
18336;SDS011;9294;51.106;7.028;2022-12-10T08:11:12;6.13;;;5.30;;
18336;SDS011;9294;51.106;7.028;2022-12-10T08:13:40;14.85;;;6.32;;
18336;SDS011;9294;51.106;7.028;2022-12-10T08:16:08;14.45;;;7.15;;
18336;SDS011;9294;51.106;7.028;2022-12-10T08:18:37;18.85;;;8.68;;
18336;SDS011;9294;51.106;7.028;2022-12-10T08:21:04;14.57;;;7.22;;
18336;SDS011;9294;51.106;7.028;2022-12-10T08:23:33;14.70;;;7.20;;
18336;SDS011;9294;51.106;7.028;2022-12-10T08:26:02;13.50;;;7.05;;
18336;SDS011;9294;51.106;7.028;2022-12-10T08:28:30;11.95;;;7.55;;
18336;SDS011;9294;51.106;7.028;2022-12-10T08:30:56;13.10;;;7.82;;
18336;SDS011;9294;51.106;7.028;2022-12-10T08:33:23;21.38;;;15.23;;
18336;SDS011;9294;51.106;7.028;2022-12-10T08:35:50;12.50;;;9.60;;
18336;SDS011;9294;51.106;7.028;2022-12-10T08:38:17;12.48;;;11.18;;
18336;SDS011;9294;51.106;7.028;2022-12-10T08:40:46;12.30;;;9.52;;
18336;SDS011;9294;51.106;7.028;2022-12-10T08:43:12;16.50;;;9.65;;
18336;SDS011;9294;51.106;7.028;2022-12-10T08:45:39;12.52;;;8.95;;
18336;SDS011;9294;51.106;7.028;2022-12-10T08:48:06;11.98;;;9.07;;
18336;SDS011;9294;51.106;7.028;2022-12-10T08:50:33;11.13;;;8.48;;
18336;SDS011;9294;51.106;7.028;2022-12-10T08:53:00;15.68;;;9.30;;
18336;SDS011;9294;51.106;7.028;2022-12-10T08:55:26;14.70;;;8.13;;
18336;SDS011;9294;51.106;7.028;2022-12-10T08:57:54;12.70;;;7.32;;
18336;SDS011;9294;51.106;7.028;2022-12-10T09:00:22;9.43;;;7.22;;
18336;SDS011;9294;51.106;7.028;2022-12-10T09:02:49;11.60;;;7.50;;
18336;SDS011;9294;51.106;7.028;2022-12-10T09:05:16;12.20;;;7.55;;
18336;SDS011;9294;51.106;7.028;2022-12-10T09:07:42;10.95;;;7.38;;
18336;SDS011;9294;51.106;7.028;2022-12-10T09:10:09;16.40;;;7.28;;
18336;SDS011;9294;51.106;7.028;2022-12-10T09:12:37;12.80;;;7.75;;
18336;SDS011;9294;51.106;7.028;2022-12-10T09:15:08;13.13;;;6.65;;
18336;SDS011;9294;51.106;7.028;2022-12-10T09:17:35;10.45;;;6.70;;
18336;SDS011;9294;51.106;7.028;2022-12-10T09:20:03;10.93;;;7.07;;
18336;SDS011;9294;51.106;7.028;2022-12-10T09:22:31;9.07;;;6.78;;
18336;SDS011;9294;51.106;7.028;2022-12-10T09:25:01;13.70;;;7.45;;
18336;SDS011;9294;51.106;7.028;2022-12-10T09:27:29;13.90;;;7.15;;
18336;SDS011;9294;51.106;7.028;2022-12-10T09:29:56;12.13;;;6.80;;
18336;SDS011;9294;51.106;7.028;2022-12-10T09:32:24;10.25;;;7.35;;
18336;SDS011;9294;51.106;7.028;2022-12-10T09:34:51;11.10;;;6.15;;
18336;SDS011;9294;51.106;7.028;2022-12-10T09:37:18;11.15;;;7.50;;
18336;SDS011;9294;51.106;7.028;2022-12-10T09:39:45;10.27;;;6.60;;
18336;SDS011;9294;51.106;7.028;2022-12-10T09:42:16;13.82;;;6.68;;
18336;SDS011;9294;51.106;7.028;2022-12-10T09:44:53;11.02;;;7.00;;
18336;SDS011;9294;51.106;7.028;2022-12-10T09:47:29;13.65;;;6.85;;
18336;SDS011;9294;51.106;7.028;2022-12-10T09:50:02;10.07;;;7.03;;
18336;SDS011;9294;51.106;7.028;2022-12-10T09:52:36;9.45;;;5.75;;
18336;SDS011;9294;51.106;7.028;2022-12-10T09:55:08;11.63;;;7.82;;
18336;SDS011;9294;51.106;7.028;2022-12-10T09:57:39;17.50;;;7.22;;
18336;SDS011;9294;51.106;7.028;2022-12-10T10:00:15;10.77;;;6.50;;
18336;SDS011;9294;51.106;7.028;2022-12-10T10:02:50;11.80;;;7.82;;
18336;SDS011;9294;51.106;7.028;2022-12-10T10:05:22;13.57;;;7.00;;
18336;SDS011;9294;51.106;7.028;2022-12-10T10:07:51;16.38;;;7.10;;
18336;SDS011;9294;51.106;7.028;2022-12-10T10:10:21;12.85;;;7.72;;
18336;SDS011;9294;51.106;7.028;2022-12-10T10:12:52;11.23;;;6.80;;
18336;SDS011;9294;51.106;7.028;2022-12-10T10:15:22;10.50;;;7.38;;
18336;SDS011;9294;51.106;7.028;2022-12-10T10:17:56;8.93;;;7.28;;
18336;SDS011;9294;51.106;7.028;2022-12-10T10:20:25;10.95;;;6.63;;
18336;SDS011;9294;51.106;7.028;2022-12-10T10:22:53;15.85;;;11.02;;
18336;SDS011;9294;51.106;7.028;2022-12-10T10:25:23;10.07;;;7.63;;
18336;SDS011;9294;51.106;7.028;2022-12-10T10:27:50;14.55;;;8.35;;
18336;SDS011;9294;51.106;7.028;2022-12-10T10:30:18;12.18;;;8.50;;
18336;SDS011;9294;51.106;7.028;2022-12-10T10:32:48;14.93;;;8.95;;
18336;SDS011;9294;51.106;7.028;2022-12-10T10:35:22;11.13;;;8.85;;
18336;SDS011;9294;51.106;7.028;2022-12-10T10:37:51;9.98;;;7.70;;
18336;SDS011;9294;51.106;7.028;2022-12-10T10:40:22;10.18;;;8.43;;
18336;SDS011;9294;51.106;7.028;2022-12-10T10:42:51;9.82;;;8.20;;
18336;SDS011;9294;51.106;7.028;2022-12-10T10:48:15;12.13;;;8.68;;
18336;SDS011;9294;51.106;7.028;2022-12-10T10:50:46;9.20;;;8.20;;
18336;SDS011;9294;51.106;7.028;2022-12-10T10:53:21;12.43;;;8.68;;
18336;SDS011;9294;51.106;7.028;2022-12-10T10:55:57;12.80;;;8.27;;
18336;SDS011;9294;51.106;7.028;2022-12-10T10:58:27;9.38;;;7.65;;
18336;SDS011;9294;51.106;7.028;2022-12-10T11:00:55;10.85;;;8.70;;
18336;SDS011;9294;51.106;7.028;2022-12-10T11:03:25;12.18;;;8.43;;
18336;SDS011;9294;51.106;7.028;2022-12-10T11:05:54;11.93;;;8.95;;
18336;SDS011;9294;51.106;7.028;2022-12-10T11:08:24;12.18;;;8.60;;
18336;SDS011;9294;51.106;7.028;2022-12-10T11:10:55;13.05;;;9.55;;
18336;SDS011;9294;51.106;7.028;2022-12-10T11:13:27;13.65;;;9.27;;
18336;SDS011;9294;51.106;7.028;2022-12-10T11:15:55;10.18;;;8.35;;
18336;SDS011;9294;51.106;7.028;2022-12-10T11:18:24;11.85;;;9.38;;
18336;SDS011;9294;51.106;7.028;2022-12-10T11:21:01;15.45;;;9.40;;
18336;SDS011;9294;51.106;7.028;2022-12-10T11:23:30;12.75;;;10.55;;
18336;SDS011;9294;51.106;7.028;2022-12-10T11:26:01;11.65;;;10.45;;
18336;SDS011;9294;51.106;7.028;2022-12-10T11:28:40;16.67;;;10.48;;
18336;SDS011;9294;51.106;7.028;2022-12-10T11:31:19;13.05;;;11.07;;
18336;SDS011;9294;51.106;7.028;2022-12-10T11:33:59;16.70;;;10.48;;
18336;SDS011;9294;51.106;7.028;2022-12-10T11:36:34;13.13;;;10.98;;
18336;SDS011;9294;51.106;7.028;2022-12-10T11:39:10;15.48;;;10.75;;
18336;SDS011;9294;51.106;7.028;2022-12-10T11:41:53;15.35;;;11.50;;
18336;SDS011;9294;51.106;7.028;2022-12-10T11:44:25;38.45;;;26.33;;
18336;SDS011;9294;51.106;7.028;2022-12-10T11:47:05;60.55;;;42.35;;
18336;SDS011;9294;51.106;7.028;2022-12-10T11:49:47;66.22;;;46.58;;
18336;SDS011;9294;51.106;7.028;2022-12-10T11:52:25;61.17;;;46.60;;
18336;SDS011;9294;51.106;7.028;2022-12-10T11:55:07;60.75;;;45.78;;
18336;SDS011;9294;51.106;7.028;2022-12-10T11:57:48;51.78;;;38.80;;
18336;SDS011;9294;51.106;7.028;2022-12-10T12:00:25;52.40;;;37.67;;
18336;SDS011;9294;51.106;7.028;2022-12-10T12:03:13;54.20;;;37.03;;
18336;SDS011;9294;51.106;7.028;2022-12-10T12:06:02;42.63;;;34.85;;
18336;SDS011;9294;51.106;7.028;2022-12-10T12:08:43;35.28;;;31.42;;
18336;SDS011;9294;51.106;7.028;2022-12-10T12:11:19;37.67;;;28.83;;
18336;SDS011;9294;51.106;7.028;2022-12-10T12:13:55;38.95;;;28.90;;
18336;SDS011;9294;51.106;7.028;2022-12-10T12:16:28;30.83;;;27.52;;
18336;SDS011;9294;51.106;7.028;2022-12-10T12:19:00;36.25;;;27.77;;
18336;SDS011;9294;51.106;7.028;2022-12-10T12:21:29;30.17;;;25.60;;
18336;SDS011;9294;51.106;7.028;2022-12-10T12:23:58;36.00;;;26.08;;
18336;SDS011;9294;51.106;7.028;2022-12-10T12:26:29;31.63;;;24.67;;
18336;SDS011;9294;51.106;7.028;2022-12-10T12:29:00;34.85;;;24.48;;
18336;SDS011;9294;51.106;7.028;2022-12-10T12:31:38;28.80;;;22.95;;
18336;SDS011;9294;51.106;7.028;2022-12-10T12:34:10;30.67;;;23.00;;
18336;SDS011;9294;51.106;7.028;2022-12-10T12:36:43;26.90;;;21.25;;
18336;SDS011;9294;51.106;7.028;2022-12-10T12:39:13;29.25;;;21.33;;
18336;SDS011;9294;51.106;7.028;2022-12-10T12:41:50;26.10;;;21.15;;
18336;SDS011;9294;51.106;7.028;2022-12-10T12:44:29;39.20;;;20.40;;
18336;SDS011;9294;51.106;7.028;2022-12-10T12:47:02;23.00;;;19.30;;
18336;SDS011;9294;51.106;7.028;2022-12-10T12:49:40;26.83;;;20.17;;
18336;SDS011;9294;51.106;7.028;2022-12-10T12:52:12;23.25;;;18.67;;
18336;SDS011;9294;51.106;7.028;2022-12-10T12:54:48;21.88;;;18.48;;
18336;SDS011;9294;51.106;7.028;2022-12-10T12:57:18;23.83;;;18.88;;
18336;SDS011;9294;51.106;7.028;2022-12-10T12:59:55;25.88;;;17.65;;
18336;SDS011;9294;51.106;7.028;2022-12-10T13:02:39;23.35;;;17.40;;
18336;SDS011;9294;51.106;7.028;2022-12-10T13:05:13;22.90;;;16.45;;
18336;SDS011;9294;51.106;7.028;2022-12-10T13:07:41;19.40;;;16.45;;
18336;SDS011;9294;51.106;7.028;2022-12-10T13:10:17;27.17;;;17.48;;
18336;SDS011;9294;51.106;7.028;2022-12-10T13:13:07;21.77;;;15.60;;
18336;SDS011;9294;51.106;7.028;2022-12-10T13:15:47;19.42;;;15.30;;
18336;SDS011;9294;51.106;7.028;2022-12-10T13:18:33;20.23;;;16.20;;
18336;SDS011;9294;51.106;7.028;2022-12-10T13:24:05;21.10;;;15.65;;
18336;SDS011;9294;51.106;7.028;2022-12-10T13:26:35;16.40;;;14.68;;
18336;SDS011;9294;51.106;7.028;2022-12-10T13:29:12;16.50;;;13.73;;
18336;SDS011;9294;51.106;7.028;2022-12-10T13:31:54;18.52;;;15.18;;
18336;SDS011;9294;51.106;7.028;2022-12-10T13:34:32;15.90;;;13.85;;
18336;SDS011;9294;51.106;7.028;2022-12-10T13:37:14;16.58;;;13.65;;
18336;SDS011;9294;51.106;7.028;2022-12-10T13:39:48;19.05;;;13.85;;
18336;SDS011;9294;51.106;7.028;2022-12-10T13:42:26;16.75;;;13.88;;
18336;SDS011;9294;51.106;7.028;2022-12-10T13:45:26;17.35;;;13.23;;
18336;SDS011;9294;51.106;7.028;2022-12-10T13:48:18;19.50;;;13.27;;
18336;SDS011;9294;51.106;7.028;2022-12-10T13:50:54;15.05;;;12.77;;
18336;SDS011;9294;51.106;7.028;2022-12-10T13:53:38;15.93;;;12.68;;
18336;SDS011;9294;51.106;7.028;2022-12-10T13:56:16;14.75;;;13.23;;
18336;SDS011;9294;51.106;7.028;2022-12-10T13:58:50;13.48;;;10.95;;
18336;SDS011;9294;51.106;7.028;2022-12-10T14:01:28;15.60;;;12.35;;
18336;SDS011;9294;51.106;7.028;2022-12-10T14:04:09;15.73;;;11.80;;
18336;SDS011;9294;51.106;7.028;2022-12-10T14:06:55;17.17;;;13.15;;
18336;SDS011;9294;51.106;7.028;2022-12-10T14:09:23;14.70;;;12.95;;
18336;SDS011;9294;51.106;7.028;2022-12-10T14:11:54;16.90;;;11.88;;
18336;SDS011;9294;51.106;7.028;2022-12-10T14:14:25;14.50;;;12.75;;
18336;SDS011;9294;51.106;7.028;2022-12-10T14:16:59;28.27;;;13.00;;
18336;SDS011;9294;51.106;7.028;2022-12-10T14:19:26;14.00;;;12.38;;
18336;SDS011;9294;51.106;7.028;2022-12-10T14:21:55;18.05;;;14.30;;
18336;SDS011;9294;51.106;7.028;2022-12-10T14:24:26;21.33;;;12.30;;
18336;SDS011;9294;51.106;7.028;2022-12-10T14:26:59;16.75;;;13.57;;
18336;SDS011;9294;51.106;7.028;2022-12-10T14:29:29;13.13;;;11.82;;
18336;SDS011;9294;51.106;7.028;2022-12-10T14:31:56;17.33;;;12.13;;
18336;SDS011;9294;51.106;7.028;2022-12-10T14:34:24;18.02;;;12.43;;
18336;SDS011;9294;51.106;7.028;2022-12-10T14:36:54;13.52;;;10.90;;
18336;SDS011;9294;51.106;7.028;2022-12-10T14:39:25;14.10;;;11.43;;
18336;SDS011;9294;51.106;7.028;2022-12-10T14:41:55;14.05;;;12.07;;
18336;SDS011;9294;51.106;7.028;2022-12-10T14:44:23;15.00;;;12.73;;
18336;SDS011;9294;51.106;7.028;2022-12-10T14:46:57;15.73;;;12.05;;
18336;SDS011;9294;51.106;7.028;2022-12-10T14:49:31;14.45;;;11.07;;
18336;SDS011;9294;51.106;7.028;2022-12-10T14:51:57;14.20;;;11.27;;
18336;SDS011;9294;51.106;7.028;2022-12-10T14:54:26;13.85;;;10.80;;
18336;SDS011;9294;51.106;7.028;2022-12-10T14:56:56;13.95;;;11.95;;
18336;SDS011;9294;51.106;7.028;2022-12-10T14:59:27;16.13;;;11.40;;
18336;SDS011;9294;51.106;7.028;2022-12-10T15:02:01;19.88;;;11.68;;
18336;SDS011;9294;51.106;7.028;2022-12-10T15:04:39;13.20;;;10.57;;
18336;SDS011;9294;51.106;7.028;2022-12-10T15:07:10;13.50;;;10.75;;
18336;SDS011;9294;51.106;7.028;2022-12-10T15:09:40;11.93;;;10.82;;
18336;SDS011;9294;51.106;7.028;2022-12-10T15:12:15;11.77;;;10.60;;
18336;SDS011;9294;51.106;7.028;2022-12-10T15:15:07;11.13;;;10.13;;
18336;SDS011;9294;51.106;7.028;2022-12-10T15:17:43;11.32;;;10.18;;
18336;SDS011;9294;51.106;7.028;2022-12-10T15:20:20;15.82;;;10.90;;